createdAt,value
2018-08-24T00:01:08.867Z,20.80
2018-08-24T00:03:42.976Z,20.80
2018-08-24T00:06:17.226Z,20.80
2018-08-24T00:08:51.320Z,20.80
2018-08-24T00:11:25.531Z,20.80
2018-08-24T00:13:59.421Z,20.70
2018-08-24T00:25:24.776Z,20.70
2018-08-24T00:27:58.999Z,20.70
2018-08-24T00:30:33.155Z,20.70
2018-08-24T00:33:07.146Z,20.70
2018-08-24T00:35:41.270Z,20.70
2018-08-24T00:38:15.240Z,20.70
2018-08-24T00:40:53.774Z,20.60
2018-08-24T00:43:28.155Z,20.70
2018-08-24T00:46:02.187Z,20.70
2018-08-24T00:48:36.628Z,20.60
2018-08-24T00:51:10.369Z,20.60
2018-08-24T00:53:44.335Z,20.60
2018-08-24T00:56:18.476Z,20.70
2018-08-24T00:58:52.264Z,20.60
2018-08-24T01:01:26.534Z,20.60
2018-08-24T01:04:00.805Z,20.50
2018-08-24T01:06:34.999Z,20.50
2018-08-24T01:09:08.992Z,20.50
2018-08-24T01:11:48.631Z,20.50
2018-08-24T01:14:22.736Z,20.50
2018-08-24T01:17:02.938Z,20.40
2018-08-24T01:19:37.049Z,20.40
2018-08-24T01:22:11.197Z,20.40
2018-08-24T01:24:45.055Z,20.30
2018-08-24T01:27:19.060Z,20.30
2018-08-24T01:29:53.195Z,20.30
2018-08-24T01:32:27.105Z,20.30
2018-08-24T01:35:01.219Z,20.20
2018-08-24T01:37:35.335Z,20.20
2018-08-24T01:40:09.884Z,20.20
2018-08-24T01:42:43.694Z,20.20
2018-08-24T01:45:17.996Z,20.20
2018-08-24T01:47:51.859Z,20.20
2018-08-24T01:50:25.921Z,20.20
2018-08-24T01:53:00.276Z,20.20
2018-08-24T01:55:34.259Z,20.30
2018-08-24T01:58:08.174Z,20.30
2018-08-24T02:00:42.014Z,20.30
2018-08-24T02:03:16.339Z,20.30
2018-08-24T02:05:50.656Z,20.30
2018-08-24T02:08:24.934Z,20.30
2018-08-24T02:10:58.956Z,20.30
2018-08-24T02:13:38.711Z,20.20
2018-08-24T02:16:12.591Z,20.20
2018-08-24T02:18:52.311Z,20.20
2018-08-24T02:21:31.864Z,20.10
2018-08-24T02:24:06.104Z,20.10
2018-08-24T02:26:40.694Z,20.10
2018-08-24T02:29:14.755Z,20.00
2018-08-24T02:31:49.120Z,20.00
2018-08-24T02:34:23.383Z,20.00
2018-08-24T02:36:57.159Z,20.00
2018-08-24T02:39:31.258Z,20.00
2018-08-24T02:42:05.259Z,20.00
2018-08-24T02:44:39.535Z,20.00
2018-08-24T02:47:13.809Z,20.00
2018-08-24T02:49:47.708Z,19.90
2018-08-24T02:52:21.556Z,19.90
2018-08-24T02:54:56.018Z,19.90
2018-08-24T02:57:29.768Z,19.80
2018-08-24T03:00:03.981Z,19.80
2018-08-24T03:02:37.956Z,19.80
2018-08-24T03:05:12.174Z,19.70
2018-08-24T03:07:46.100Z,19.70
2018-08-24T03:10:20.431Z,19.70
2018-08-24T03:12:54.611Z,19.70
2018-08-24T03:15:28.858Z,19.60
2018-08-24T03:18:02.879Z,19.50
2018-08-24T03:20:37.474Z,19.40
2018-08-24T03:23:12.061Z,19.30
2018-08-24T03:25:46.041Z,19.10
2018-08-24T03:28:19.921Z,19.00
2018-08-24T03:30:53.829Z,18.90
2018-08-24T03:33:27.996Z,18.90
2018-08-24T03:36:02.060Z,18.80
2018-08-24T03:38:35.964Z,18.60
2018-08-24T03:41:10.534Z,18.60
2018-08-24T03:43:50.976Z,18.50
2018-08-24T03:46:26.534Z,18.50
2018-08-24T03:49:00.589Z,18.50
2018-08-24T03:51:34.901Z,18.40
2018-08-24T03:54:13.465Z,18.40
2018-08-24T03:56:53.619Z,18.40
2018-08-24T03:59:28.800Z,18.30
2018-08-24T04:02:05.002Z,18.30
2018-08-24T04:04:39.494Z,18.30
2018-08-24T04:07:13.223Z,18.20
2018-08-24T04:09:47.064Z,18.20
2018-08-24T04:12:21.165Z,18.10
2018-08-24T04:14:55.168Z,18.00
2018-08-24T04:17:34.855Z,18.00
2018-08-24T04:20:09.015Z,17.90
2018-08-24T04:22:43.020Z,17.90
2018-08-24T04:25:17.040Z,17.80
2018-08-24T04:27:51.160Z,17.80
2018-08-24T04:30:24.945Z,17.80
2018-08-24T04:32:59.045Z,17.80
2018-08-24T04:35:33.221Z,17.80
2018-08-24T04:38:07.603Z,17.80
2018-08-24T04:40:41.838Z,17.80
2018-08-24T04:43:15.941Z,17.90
2018-08-24T04:45:49.905Z,17.90
2018-08-24T04:48:23.951Z,17.90
2018-08-24T04:50:57.963Z,17.90
2018-08-24T04:53:32.153Z,17.80
2018-08-24T04:56:06.760Z,17.80
2018-08-24T04:58:40.510Z,17.90
2018-08-24T05:01:14.863Z,18.00
2018-08-24T05:03:49.004Z,17.90
2018-08-24T05:06:23.235Z,17.80
2018-08-24T05:08:57.080Z,17.80
2018-08-24T05:11:31.020Z,17.80
2018-08-24T05:14:05.546Z,17.80
2018-08-24T05:16:39.907Z,17.80
2018-08-24T05:19:13.815Z,17.80
2018-08-24T05:21:47.936Z,17.80
2018-08-24T05:24:21.923Z,17.80
2018-08-24T05:26:55.935Z,17.80
2018-08-24T05:29:30.350Z,17.80
2018-08-24T05:32:04.569Z,17.90
2018-08-24T05:34:39.099Z,17.90
2018-08-24T05:37:13.119Z,17.80
2018-08-24T05:39:47.147Z,17.90
2018-08-24T05:42:21.299Z,18.00
2018-08-24T05:44:55.609Z,18.00
2018-08-24T05:47:29.693Z,18.10
2018-08-24T05:50:03.750Z,18.20
2018-08-24T05:52:37.744Z,18.20
2018-08-24T05:55:11.651Z,18.10
2018-08-24T05:57:45.819Z,18.10
2018-08-24T06:00:24.476Z,18.10
2018-08-24T06:02:58.384Z,18.10
2018-08-24T06:05:32.858Z,18.20
2018-08-24T06:08:06.969Z,18.20
2018-08-24T06:10:41.355Z,18.10
2018-08-24T06:13:17.024Z,18.10
2018-08-24T06:15:50.958Z,18.10
2018-08-24T06:18:25.065Z,18.10
2018-08-24T06:20:59.046Z,18.10
2018-08-24T06:23:33.034Z,18.10
2018-08-24T06:26:07.352Z,18.10
2018-08-24T06:28:41.724Z,18.00
2018-08-24T06:31:15.832Z,18.00
2018-08-24T06:33:50.017Z,18.00
2018-08-24T06:36:24.449Z,18.00
2018-08-24T06:38:58.591Z,18.10
2018-08-24T06:41:33.262Z,18.10
2018-08-24T06:44:07.396Z,18.10
2018-08-24T06:46:41.451Z,18.10
2018-08-24T06:49:15.463Z,18.10
2018-08-24T06:51:49.541Z,18.10
2018-08-24T06:54:23.624Z,18.10
2018-08-24T06:56:57.792Z,18.10
2018-08-24T06:59:32.416Z,18.20
2018-08-24T07:02:06.411Z,18.30
2018-08-24T07:04:40.530Z,18.30
2018-08-24T07:07:14.577Z,18.30
2018-08-24T07:09:48.636Z,18.30
2018-08-24T07:12:22.666Z,18.30
2018-08-24T07:14:56.780Z,18.30
2018-08-24T07:17:36.508Z,18.30
2018-08-24T07:20:10.481Z,18.30
2018-08-24T07:22:44.519Z,18.20
2018-08-24T07:25:18.557Z,18.20
2018-08-24T07:27:52.720Z,18.20
2018-08-24T07:30:26.636Z,18.20
2018-08-24T07:33:00.739Z,18.30
2018-08-24T07:35:34.970Z,18.30
2018-08-24T07:38:09.346Z,18.30
2018-08-24T07:40:43.277Z,18.30
2018-08-24T07:43:17.917Z,18.40
2018-08-24T07:45:51.773Z,18.40
2018-08-24T07:48:25.661Z,18.50
2018-08-24T07:51:00.039Z,18.50
2018-08-24T07:53:33.837Z,18.50
2018-08-24T07:56:08.157Z,18.60
2018-08-24T07:58:42.515Z,18.60
2018-08-24T08:01:16.458Z,18.60
2018-08-24T08:03:51.015Z,18.60
2018-08-24T08:06:25.011Z,18.60
2018-08-24T08:08:59.697Z,18.70
2018-08-24T08:11:39.487Z,18.70
2018-08-24T08:14:13.812Z,18.70
2018-08-24T08:16:52.540Z,18.70
2018-08-24T08:19:27.450Z,18.80
2018-08-24T08:22:01.722Z,18.70
2018-08-24T08:24:36.087Z,18.80
2018-08-24T08:27:10.220Z,18.80
2018-08-24T08:29:50.055Z,18.80
2018-08-24T08:32:24.230Z,18.80
2018-08-24T08:34:58.577Z,18.90
2018-08-24T08:37:33.235Z,19.00
2018-08-24T08:40:07.450Z,19.10
2018-08-24T08:42:41.125Z,19.20
2018-08-24T08:45:15.040Z,19.30
2018-08-24T08:47:49.447Z,19.20
2018-08-24T08:50:24.105Z,19.30
2018-08-24T08:52:57.996Z,19.30
2018-08-24T08:55:32.123Z,19.30
2018-08-24T08:58:06.739Z,19.30
2018-08-24T09:00:41.295Z,19.40
2018-08-24T09:03:15.360Z,19.30
2018-08-24T09:05:49.574Z,19.30
2018-08-24T09:08:23.536Z,19.30
2018-08-24T09:10:57.603Z,19.30
2018-08-24T09:13:31.801Z,19.30
2018-08-24T09:16:05.890Z,19.20
2018-08-24T09:18:45.661Z,19.10
2018-08-24T09:21:25.044Z,19.00
2018-08-24T09:24:04.403Z,18.90
2018-08-24T09:26:43.893Z,18.80
2018-08-24T09:29:25.463Z,18.80
2018-08-24T09:32:00.326Z,18.70
2018-08-24T09:34:34.273Z,18.40
2018-08-24T09:37:13.911Z,17.80
2018-08-24T09:39:48.380Z,17.40
2018-08-24T09:42:22.210Z,17.20
2018-08-24T09:44:57.130Z,17.00
2018-08-24T09:47:36.885Z,16.90
2018-08-24T09:50:16.944Z,16.80
2018-08-24T09:52:56.540Z,16.90
2018-08-24T09:55:36.045Z,16.90
2018-08-24T09:58:10.160Z,16.90
2018-08-24T10:00:50.866Z,17.10
2018-08-24T10:03:30.463Z,17.30
2018-08-24T10:06:10.430Z,17.50
2018-08-24T10:08:47.992Z,17.80
2018-08-24T10:11:21.854Z,18.10
2018-08-24T10:13:55.895Z,18.30
2018-08-24T10:16:29.889Z,18.60
2018-08-24T10:19:03.856Z,18.80
2018-08-24T10:21:38.306Z,18.90
2018-08-24T10:24:12.396Z,19.00
2018-08-24T10:26:46.471Z,19.10
2018-08-24T10:29:20.915Z,19.20
2018-08-24T10:31:55.526Z,19.20
2018-08-24T10:34:30.021Z,19.30
2018-08-24T10:37:04.373Z,19.40
2018-08-24T10:39:38.981Z,19.50
2018-08-24T10:42:13.325Z,19.50
2018-08-24T10:44:47.750Z,19.60
2018-08-24T10:47:22.287Z,19.70
2018-08-24T10:49:56.441Z,19.70
2018-08-24T10:52:30.275Z,19.70
2018-08-24T10:55:04.651Z,19.70
2018-08-24T10:57:38.860Z,19.70
2018-08-24T11:00:13.120Z,19.60
2018-08-24T11:02:47.875Z,19.50
2018-08-24T11:05:22.584Z,19.50
2018-08-24T11:07:56.718Z,19.40
2018-08-24T11:10:30.809Z,19.40
2018-08-24T11:13:05.111Z,19.40
2018-08-24T11:15:38.980Z,19.50
2018-08-24T11:18:13.358Z,19.60
2018-08-24T11:20:47.595Z,19.70
2018-08-24T11:23:21.710Z,19.80
2018-08-24T11:25:55.755Z,19.90
2018-08-24T11:28:30.293Z,20.00
2018-08-24T11:31:04.450Z,20.20
2018-08-24T11:33:38.415Z,20.30
2018-08-24T11:36:12.746Z,20.20
2018-08-24T11:38:46.799Z,20.00
2018-08-24T11:41:20.851Z,20.10
2018-08-24T11:43:54.939Z,20.10
2018-08-24T11:46:29.691Z,20.20
2018-08-24T11:49:03.994Z,20.20
2018-08-24T11:51:38.632Z,20.10
2018-08-24T11:54:12.810Z,20.20
2018-08-24T11:56:47.524Z,20.40
2018-08-24T11:59:21.577Z,20.70
2018-08-24T12:01:55.845Z,20.90
2018-08-24T12:04:30.397Z,20.90
2018-08-24T12:07:04.340Z,21.00
2018-08-24T12:09:39.046Z,21.00
2018-08-24T12:12:13.354Z,21.00
2018-08-24T12:14:47.454Z,21.10
2018-08-24T12:17:24.190Z,20.90
2018-08-24T12:19:58.233Z,20.80
2018-08-24T12:22:32.286Z,20.80
2018-08-24T12:25:06.684Z,20.80
2018-08-24T12:27:40.706Z,21.10
2018-08-24T12:30:14.711Z,21.20
2018-08-24T12:32:49.041Z,21.40
2018-08-24T12:35:23.051Z,21.30
2018-08-24T12:37:57.303Z,21.20
2018-08-24T12:40:31.502Z,21.20
2018-08-24T12:43:05.666Z,21.10
2018-08-24T12:45:39.910Z,21.20
2018-08-24T12:48:14.214Z,21.20
2018-08-24T12:50:48.620Z,21.20
2018-08-24T12:53:22.780Z,21.20
2018-08-24T12:55:56.900Z,21.10
2018-08-24T12:58:30.931Z,21.10
2018-08-24T13:01:04.971Z,21.10
2018-08-24T13:03:39.160Z,21.20
2018-08-24T13:06:13.107Z,21.30
2018-08-24T13:08:47.244Z,21.40
2018-08-24T13:11:21.463Z,21.30
2018-08-24T13:13:55.316Z,21.50
2018-08-24T13:16:29.730Z,21.40
2018-08-24T13:19:03.616Z,21.50
2018-08-24T13:21:37.852Z,21.60
2018-08-24T13:24:12.234Z,21.60
2018-08-24T13:26:46.012Z,21.60
2018-08-24T13:29:20.106Z,21.70
2018-08-24T13:31:54.160Z,21.90
2018-08-24T13:34:28.179Z,22.20
2018-08-24T13:37:02.454Z,22.50
2018-08-24T13:39:36.545Z,23.00
2018-08-24T13:42:10.879Z,23.50
2018-08-24T13:44:44.845Z,23.50
2018-08-24T13:47:19.933Z,23.30
2018-08-24T13:49:54.321Z,23.30
2018-08-24T13:52:28.526Z,23.40
2018-08-24T13:55:02.771Z,23.50
2018-08-24T13:57:37.160Z,23.80
2018-08-24T14:00:11.443Z,23.70
2018-08-24T14:02:45.735Z,23.70
2018-08-24T14:05:20.500Z,23.50
2018-08-24T14:07:54.367Z,23.50
2018-08-24T14:10:28.552Z,23.40
2018-08-24T14:13:02.562Z,23.10
2018-08-24T14:15:36.523Z,22.90
2018-08-24T14:18:15.160Z,22.70
2018-08-24T14:20:49.214Z,22.50
2018-08-24T14:23:23.346Z,22.40
2018-08-24T14:25:57.180Z,22.20
2018-08-24T14:28:31.101Z,22.00
2018-08-24T14:31:05.457Z,21.90
2018-08-24T14:33:39.634Z,21.90
2018-08-24T14:36:13.618Z,21.80
2018-08-24T14:38:47.644Z,21.80
2018-08-24T14:41:21.995Z,21.90
2018-08-24T14:43:56.061Z,21.80
2018-08-24T14:46:30.172Z,21.80
2018-08-24T14:49:04.330Z,21.80
2018-08-24T14:51:38.505Z,21.60
2018-08-24T14:54:12.401Z,21.60
2018-08-24T14:56:46.664Z,21.60
2018-08-24T14:59:21.697Z,21.50
2018-08-24T15:01:56.339Z,21.50
2018-08-24T15:04:30.255Z,21.40
2018-08-24T15:07:05.085Z,21.40
2018-08-24T15:09:39.529Z,21.40
2018-08-24T15:12:13.774Z,21.40
2018-08-24T15:14:48.036Z,21.30
2018-08-24T15:17:22.294Z,21.40
2018-08-24T15:19:56.300Z,21.30
2018-08-24T15:22:30.326Z,21.30
2018-08-24T15:25:04.934Z,21.30
2018-08-24T15:27:39.069Z,21.30
2018-08-24T15:30:12.994Z,21.30
2018-08-24T15:32:47.215Z,21.40
2018-08-24T15:35:21.191Z,21.30
2018-08-24T15:37:55.484Z,21.20
2018-08-24T15:40:29.875Z,21.20
2018-08-24T15:43:04.378Z,21.20
2018-08-24T15:45:38.410Z,21.20
2018-08-24T15:48:12.614Z,21.20
2018-08-24T15:50:46.739Z,21.20
2018-08-24T15:53:21.149Z,21.20
2018-08-24T15:55:55.368Z,21.20
2018-08-24T15:58:29.369Z,21.10
2018-08-24T16:01:03.690Z,21.00
2018-08-24T16:03:37.624Z,21.00
2018-08-24T16:06:11.815Z,20.80
2018-08-24T16:08:45.891Z,20.80
2018-08-24T16:11:19.958Z,20.70
2018-08-24T16:13:54.884Z,20.60
2018-08-24T16:16:29.091Z,20.60
2018-08-24T16:19:03.375Z,20.60
2018-08-24T16:21:37.631Z,20.60
2018-08-24T16:24:11.760Z,20.60
2018-08-24T16:26:45.855Z,20.50
2018-08-24T16:29:19.935Z,20.40
2018-08-24T16:31:54.438Z,20.30
2018-08-24T16:34:28.459Z,20.30
2018-08-24T16:37:02.983Z,20.20
2018-08-24T16:39:37.116Z,20.20
2018-08-24T16:42:11.239Z,20.20
2018-08-24T16:44:45.648Z,20.00
2018-08-24T16:47:19.914Z,20.00
2018-08-24T16:49:54.734Z,20.00
2018-08-24T16:52:28.825Z,20.00
2018-08-24T16:55:02.929Z,20.00
2018-08-24T16:57:37.039Z,19.90
2018-08-24T17:00:11.265Z,19.90
2018-08-24T17:02:45.311Z,19.80
2018-08-24T17:05:19.395Z,19.80
2018-08-24T17:07:53.465Z,19.80
2018-08-24T17:10:27.691Z,19.80
2018-08-24T17:13:01.798Z,19.70
2018-08-24T17:15:35.699Z,19.70
2018-08-24T17:18:09.716Z,19.60
2018-08-24T17:20:45.146Z,19.70
2018-08-24T17:23:19.286Z,19.70
2018-08-24T17:25:53.591Z,19.60
2018-08-24T17:28:27.651Z,19.60
2018-08-24T17:31:01.710Z,19.60
2018-08-24T17:33:35.706Z,19.50
2018-08-24T17:36:09.936Z,19.50
2018-08-24T17:38:44.079Z,19.40
2018-08-24T17:41:18.180Z,19.40
2018-08-24T17:43:52.984Z,19.30
2018-08-24T17:46:28.130Z,19.40
2018-08-24T17:49:02.120Z,19.30
2018-08-24T17:51:36.231Z,19.30
2018-08-24T17:54:10.541Z,19.20
2018-08-24T17:56:44.773Z,19.10
2018-08-24T17:59:19.215Z,19.10
2018-08-24T18:01:53.204Z,19.10
2018-08-24T18:04:27.575Z,19.10
2018-08-24T18:07:01.709Z,19.10
2018-08-24T18:09:36.133Z,19.00
2018-08-24T18:12:10.406Z,19.00
2018-08-24T18:14:44.813Z,19.00
2018-08-24T18:17:19.459Z,18.90
2018-08-24T18:19:53.735Z,18.90
2018-08-24T18:22:28.179Z,18.80
2018-08-24T18:25:02.541Z,18.80
2018-08-24T18:27:36.788Z,18.70
2018-08-24T18:30:11.254Z,18.70
2018-08-24T18:32:45.350Z,18.70
2018-08-24T18:35:19.480Z,18.60
2018-08-24T18:37:53.315Z,18.60
2018-08-24T18:40:27.550Z,18.60
2018-08-24T18:43:01.461Z,18.60
2018-08-24T18:45:35.861Z,18.50
2018-08-24T18:48:09.882Z,18.40
2018-08-24T18:50:44.013Z,18.40
2018-08-24T18:53:18.474Z,18.40
2018-08-24T18:55:52.925Z,18.30
2018-08-24T18:58:26.901Z,18.30
2018-08-24T19:01:00.917Z,18.30
2018-08-24T19:03:34.879Z,18.30
2018-08-24T19:06:09.304Z,18.30
2018-08-24T19:08:43.381Z,18.20
2018-08-24T19:11:23.112Z,18.20
2018-08-24T19:13:57.453Z,18.10
2018-08-24T19:16:31.500Z,18.10
2018-08-24T19:19:11.043Z,18.00
2018-08-24T19:21:46.527Z,18.00
2018-08-24T19:24:20.658Z,18.00
2018-08-24T19:26:54.615Z,18.00
2018-08-24T19:29:34.560Z,17.90
2018-08-24T19:32:09.104Z,17.90
2018-08-24T19:34:43.229Z,17.80
2018-08-24T19:37:17.508Z,17.80
2018-08-24T19:39:56.775Z,17.80
2018-08-24T19:42:30.938Z,17.80
2018-08-24T19:45:05.025Z,17.80
2018-08-24T19:47:44.908Z,17.80
2018-08-24T19:50:21.418Z,17.70
2018-08-24T19:52:56.523Z,17.70
2018-08-24T19:55:31.201Z,17.70
2018-08-24T19:58:10.894Z,17.70
2018-08-24T20:00:44.762Z,17.70
2018-08-24T20:03:18.930Z,17.60
2018-08-24T20:05:58.510Z,17.60
2018-08-24T20:08:38.265Z,17.60
2018-08-24T20:11:12.435Z,17.60
2018-08-24T20:13:46.641Z,17.60
2018-08-24T20:16:26.076Z,17.50
2018-08-24T20:19:00.250Z,17.50
2018-08-24T20:21:34.279Z,17.40
2018-08-24T20:24:08.623Z,17.40
2018-08-24T20:26:42.665Z,17.40
2018-08-24T20:29:17.121Z,17.40
2018-08-24T20:31:51.385Z,17.40
2018-08-24T20:34:25.560Z,17.30
2018-08-24T20:36:59.746Z,17.20
2018-08-24T20:39:33.893Z,17.20
2018-08-24T20:42:08.079Z,17.10
2018-08-24T20:44:42.305Z,17.10
2018-08-24T20:47:16.694Z,17.00
2018-08-24T20:49:50.850Z,17.00
2018-08-24T20:52:24.960Z,16.90
2018-08-24T20:54:59.307Z,16.80
2018-08-24T20:57:33.360Z,16.60
2018-08-24T21:00:08.054Z,16.50
2018-08-24T21:02:42.699Z,16.40
2018-08-24T21:05:17.126Z,16.30
2018-08-24T21:07:51.137Z,16.30
2018-08-24T21:10:25.240Z,16.20
2018-08-24T21:12:59.319Z,16.10
2018-08-24T21:15:33.466Z,15.90
2018-08-24T21:18:07.415Z,15.80
2018-08-24T21:20:41.393Z,15.70
2018-08-24T21:23:15.415Z,15.60
2018-08-24T21:25:49.314Z,15.60
2018-08-24T21:28:23.571Z,15.60
2018-08-24T21:30:58.777Z,15.50
2018-08-24T21:33:32.926Z,15.40
2018-08-24T21:36:07.201Z,15.30
2018-08-24T21:38:42.139Z,15.30
2018-08-24T21:41:16.341Z,15.20
2018-08-24T21:43:50.259Z,15.20
2018-08-24T21:46:24.481Z,15.30
2018-08-24T21:48:58.840Z,15.30
2018-08-24T21:51:33.310Z,15.20
2018-08-24T21:54:07.778Z,15.20
2018-08-24T21:56:41.815Z,15.10
2018-08-24T21:59:16.040Z,15.10
2018-08-24T22:01:49.940Z,15.10
2018-08-24T22:04:24.180Z,15.00
2018-08-24T22:06:58.406Z,14.90
2018-08-24T22:09:32.263Z,14.90
2018-08-24T22:12:06.229Z,14.80
2018-08-24T22:14:40.234Z,14.80
2018-08-24T22:17:14.459Z,14.90
2018-08-24T22:19:48.960Z,14.90
2018-08-24T22:22:22.775Z,14.90
2018-08-24T22:24:56.820Z,14.80
2018-08-24T22:27:30.955Z,14.80
2018-08-24T22:30:05.552Z,14.90
2018-08-24T22:32:39.544Z,14.90
2018-08-24T22:35:13.354Z,14.90
2018-08-24T22:37:47.458Z,14.80
2018-08-24T22:40:21.893Z,14.80
2018-08-24T22:42:56.264Z,14.80
2018-08-24T22:45:30.466Z,14.80
2018-08-24T22:48:04.718Z,14.70
2018-08-24T22:50:39.280Z,14.80
2018-08-24T22:53:13.628Z,14.80
2018-08-24T22:55:48.284Z,14.80
2018-08-24T22:58:22.284Z,14.70
2018-08-24T23:00:56.445Z,14.70
2018-08-24T23:03:30.467Z,14.60
2018-08-24T23:06:04.429Z,14.60
2018-08-24T23:08:38.833Z,14.50
2018-08-24T23:11:12.659Z,14.50
2018-08-24T23:13:46.783Z,14.50
2018-08-24T23:16:20.780Z,14.50
2018-08-24T23:18:54.708Z,14.50
2018-08-24T23:21:28.766Z,14.50
2018-08-24T23:24:02.778Z,14.50
2018-08-24T23:26:36.925Z,14.40
2018-08-24T23:29:11.060Z,14.40
2018-08-24T23:31:45.742Z,14.40
2018-08-24T23:34:20.157Z,14.40
2018-08-24T23:36:55.303Z,14.50
2018-08-24T23:39:29.428Z,14.50
2018-08-24T23:42:03.653Z,14.60
2018-08-24T23:44:37.497Z,14.60
2018-08-24T23:47:11.699Z,14.60
2018-08-24T23:49:45.809Z,14.50
2018-08-24T23:52:19.676Z,14.50
2018-08-24T23:54:53.702Z,14.50
2018-08-24T23:57:27.740Z,14.50
